createdAt,value
2018-12-12T00:01:43.510Z,102475.92
2018-12-12T00:04:11.916Z,102473.34
2018-12-12T00:06:40.374Z,102474.11
2018-12-12T00:09:08.776Z,102483.42
2018-12-12T00:11:37.160Z,102482.88
2018-12-12T00:14:05.590Z,102484.03
2018-12-12T00:16:33.970Z,102483.52
2018-12-12T00:19:02.668Z,102480.68
2018-12-12T00:21:31.093Z,102492.06
2018-12-12T00:23:59.584Z,102496.61
2018-12-12T00:26:28.059Z,102502.58
2018-12-12T00:28:56.485Z,102286.59
2018-12-12T00:31:24.885Z,102503.75
2018-12-12T00:33:53.281Z,102507.63
2018-12-12T00:36:21.769Z,102512.56
2018-12-12T00:38:50.520Z,102512.17
2018-12-12T00:41:18.910Z,102514.37
2018-12-12T00:43:47.380Z,102516.96
2018-12-12T00:46:15.762Z,102513.47
2018-12-12T00:48:44.776Z,102516.19
2018-12-12T00:51:13.181Z,102514.89
2018-12-12T00:53:41.591Z,102514.51
2018-12-12T00:56:10.049Z,102518.25
2018-12-12T00:58:38.480Z,102522.52
2018-12-12T01:01:07.005Z,102524.98
2018-12-12T01:03:35.389Z,102531.31
2018-12-12T01:06:03.816Z,102530.52
2018-12-12T01:08:32.210Z,102539.16
2018-12-12T01:11:05.802Z,102545.50
2018-12-12T01:13:34.204Z,102541.23
2018-12-12T01:16:02.712Z,102549.23
2018-12-12T01:18:31.329Z,102547.54
2018-12-12T01:21:00.168Z,102546.11
2018-12-12T01:23:28.562Z,102556.19
2018-12-12T01:25:56.969Z,102568.98
2018-12-12T01:28:25.412Z,102571.18
2018-12-12T01:30:53.801Z,102569.36
2018-12-12T01:33:22.212Z,102572.06
2018-12-12T01:35:50.665Z,102572.58
2018-12-12T01:38:19.068Z,102572.97
2018-12-12T01:40:47.511Z,102576.44
2018-12-12T01:43:15.897Z,102579.02
2018-12-12T01:45:44.271Z,102580.80
2018-12-12T01:48:12.669Z,102586.22
2018-12-12T01:50:41.112Z,102588.53
2018-12-12T01:53:09.480Z,102580.88
2018-12-12T01:55:37.909Z,102582.66
2018-12-12T01:58:06.345Z,102588.22
2018-12-12T02:00:34.848Z,102590.42
2018-12-12T02:03:03.372Z,102585.00
2018-12-12T02:05:31.756Z,102591.47
2018-12-12T02:08:00.186Z,102589.66
2018-12-12T02:10:28.605Z,102596.08
2018-12-12T02:13:08.516Z,102596.56
2018-12-12T02:15:37.321Z,102598.63
2018-12-12T02:18:05.702Z,102600.16
2018-12-12T02:20:34.280Z,102603.13
2018-12-12T02:23:03.445Z,102608.55
2018-12-12T02:25:31.924Z,102575.59
2018-12-12T02:28:00.314Z,102601.41
2018-12-12T02:30:28.727Z,102611.61
2018-12-12T02:32:57.114Z,102610.19
2018-12-12T02:35:25.490Z,102608.12
2018-12-12T02:37:53.981Z,102617.31
2018-12-12T02:40:22.359Z,102613.43
2018-12-12T02:42:50.744Z,102610.19
2018-12-12T02:45:19.220Z,102612.48
2018-12-12T02:47:47.728Z,102613.25
2018-12-12T02:50:16.153Z,102606.65
2018-12-12T02:52:44.541Z,102607.89
2018-12-12T02:55:13.085Z,102607.37
2018-12-12T02:57:41.460Z,102615.51
2018-12-12T03:00:10.281Z,102616.80
2018-12-12T03:02:39.173Z,102620.01
2018-12-12T03:05:07.808Z,102617.28
2018-12-12T03:07:36.205Z,102613.93
2018-12-12T03:10:04.898Z,102605.27
2018-12-12T03:12:33.361Z,102602.54
2018-12-12T03:15:01.788Z,102610.15
2018-12-12T03:17:30.158Z,102612.69
2018-12-12T03:19:58.634Z,102623.80
2018-12-12T03:22:27.136Z,102615.89
2018-12-12T03:24:56.041Z,102620.92
2018-12-12T03:27:24.426Z,102617.95
2018-12-12T03:29:52.836Z,102623.13
2018-12-12T03:32:21.222Z,102616.91
2018-12-12T03:34:49.604Z,102621.30
2018-12-12T03:37:18.027Z,102623.65
2018-12-12T03:39:46.431Z,102625.33
2018-12-12T03:42:15.394Z,102624.66
2018-12-12T03:44:43.874Z,102623.84
2018-12-12T03:47:12.265Z,102628.09
2018-12-12T03:49:40.769Z,102636.23
2018-12-12T03:52:09.546Z,102636.52
2018-12-12T03:54:37.915Z,102645.95
2018-12-12T03:57:06.292Z,102643.36
2018-12-12T03:59:34.708Z,102641.92
2018-12-12T04:02:03.198Z,102638.05
2018-12-12T04:04:31.569Z,102633.03
2018-12-12T04:07:00.008Z,102637.62
2018-12-12T04:09:28.474Z,102639.09
2018-12-12T04:11:56.886Z,102645.27
2018-12-12T04:14:31.847Z,102645.64
2018-12-12T04:17:00.358Z,102649.28
2018-12-12T04:19:28.888Z,102642.20
2018-12-12T04:21:57.521Z,102642.34
2018-12-12T04:24:27.660Z,102650.63
2018-12-12T04:26:59.140Z,102639.77
2018-12-12T04:29:27.553Z,102647.98
2018-12-12T04:31:55.917Z,102647.70
2018-12-12T04:34:24.326Z,102645.35
2018-12-12T04:36:52.930Z,102655.25
2018-12-12T04:39:21.298Z,102655.48
2018-12-12T04:41:49.975Z,102657.02
2018-12-12T04:44:18.461Z,102648.50
2018-12-12T04:46:46.856Z,102665.14
2018-12-12T04:49:21.647Z,102672.45
2018-12-12T04:51:50.045Z,102671.33
2018-12-12T04:54:18.481Z,102674.76
2018-12-12T04:56:46.907Z,102675.91
2018-12-12T04:59:15.986Z,102674.23
2018-12-12T05:01:44.416Z,102677.64
2018-12-12T05:04:12.825Z,102673.53
2018-12-12T05:06:41.408Z,102677.17
2018-12-12T05:09:09.794Z,102672.53
2018-12-12T05:11:38.217Z,102672.83
2018-12-12T05:14:06.624Z,102683.30
2018-12-12T05:16:35.000Z,102684.89
2018-12-12T05:19:03.453Z,102685.95
2018-12-12T05:21:31.880Z,102684.42
2018-12-12T05:24:00.334Z,102688.30
2018-12-12T05:26:28.881Z,102689.44
2018-12-12T05:28:57.420Z,102701.15
2018-12-12T05:31:25.903Z,102694.78
2018-12-12T05:33:54.392Z,102701.23
2018-12-12T05:36:22.929Z,102701.53
2018-12-12T05:38:51.302Z,102707.31
2018-12-12T05:41:19.882Z,102697.97
2018-12-12T05:43:48.383Z,102689.70
2018-12-12T05:46:17.033Z,102692.13
2018-12-12T05:48:45.451Z,102695.63
2018-12-12T05:51:13.824Z,102695.09
2018-12-12T05:53:42.218Z,102696.23
2018-12-12T05:56:14.055Z,102701.25
2018-12-12T05:58:41.156Z,102702.78
2018-12-12T06:01:09.592Z,102705.36
2018-12-12T06:03:38.281Z,102710.67
2018-12-12T06:06:06.772Z,102706.42
2018-12-12T06:08:35.182Z,102719.86
2018-12-12T06:11:03.668Z,102718.95
2018-12-12T06:13:32.182Z,102721.53
2018-12-12T06:16:00.569Z,102723.35
2018-12-12T06:18:29.022Z,102692.26
2018-12-12T06:20:57.417Z,102727.98
2018-12-12T06:23:25.817Z,102733.30
2018-12-12T06:25:54.252Z,102729.05
2018-12-12T06:28:23.061Z,102735.80
2018-12-12T06:30:51.936Z,102735.42
2018-12-12T06:33:20.517Z,102738.53
2018-12-12T06:35:48.933Z,102752.35
2018-12-12T06:38:17.328Z,102748.71
2018-12-12T06:40:45.743Z,102752.20
2018-12-12T06:43:14.257Z,102754.02
2018-12-12T06:45:42.656Z,102744.75
2018-12-12T06:48:11.173Z,102744.14
2018-12-12T06:50:40.053Z,102751.66
2018-12-12T06:53:08.460Z,102750.28
2018-12-12T06:55:36.898Z,102753.02
2018-12-12T06:58:05.503Z,102759.23
2018-12-12T07:00:34.515Z,102763.64
2018-12-12T07:03:02.955Z,102763.27
2018-12-12T07:05:31.370Z,102770.48
2018-12-12T07:07:59.781Z,102775.27
2018-12-12T07:10:28.205Z,102778.61
2018-12-12T07:12:56.649Z,102775.73
2018-12-12T07:15:25.061Z,102782.56
2018-12-12T07:17:53.560Z,102789.25
2018-12-12T07:20:21.979Z,102787.81
2018-12-12T07:22:50.400Z,102787.28
2018-12-12T07:25:18.939Z,102788.95
2018-12-12T07:27:47.417Z,102787.13
2018-12-12T07:30:16.207Z,102787.36
2018-12-12T07:32:44.893Z,102793.44
2018-12-12T07:35:13.392Z,102789.04
2018-12-12T07:37:42.020Z,102796.41
2018-12-12T07:40:10.917Z,102798.61
2018-12-12T07:42:39.995Z,102801.57
2018-12-12T07:45:08.588Z,102804.69
2018-12-12T07:47:36.984Z,102803.55
2018-12-12T07:50:06.249Z,102805.89
2018-12-12T07:52:34.683Z,102797.77
2018-12-12T07:55:03.262Z,102801.03
2018-12-12T07:57:31.645Z,102808.39
2018-12-12T08:00:00.072Z,102816.67
2018-12-12T08:02:28.501Z,102814.47
2018-12-12T08:04:56.913Z,102810.59
2018-12-12T08:07:25.359Z,102817.05
2018-12-12T08:09:53.835Z,102806.88
2018-12-12T08:12:22.221Z,102814.24
2018-12-12T08:14:50.597Z,102812.19
2018-12-12T08:17:19.136Z,102811.42
2018-12-12T08:19:47.525Z,102814.16
2018-12-12T08:22:15.901Z,102814.55
2018-12-12T08:24:44.328Z,102817.89
2018-12-12T08:27:12.886Z,102824.49
2018-12-12T08:29:41.333Z,102824.11
2018-12-12T08:32:09.944Z,102825.17
2018-12-12T08:34:38.533Z,102827.76
2018-12-12T08:37:07.019Z,102817.66
2018-12-12T08:39:35.483Z,102828.28
2018-12-12T08:42:03.945Z,102832.31
2018-12-12T08:44:32.468Z,102828.97
2018-12-12T08:47:00.880Z,102833.37
2018-12-12T08:49:29.277Z,102840.52
2018-12-12T08:51:57.677Z,102839.45
2018-12-12T08:54:26.256Z,102840.74
2018-12-12T08:56:55.076Z,102838.92
2018-12-12T08:59:23.460Z,102843.86
2018-12-12T09:01:52.037Z,102838.02
2018-12-12T09:04:20.546Z,102844.85
2018-12-12T09:06:48.936Z,102849.11
2018-12-12T09:09:17.340Z,102845.23
2018-12-12T09:11:45.735Z,102854.95
2018-12-12T09:14:14.310Z,102851.08
2018-12-12T09:16:42.728Z,102852.14
2018-12-12T09:19:11.133Z,102849.33
2018-12-12T09:21:39.801Z,102856.84
2018-12-12T09:24:08.247Z,102859.05
2018-12-12T09:26:36.785Z,102863.98
2018-12-12T09:29:05.175Z,102874.70
2018-12-12T09:31:33.582Z,102871.51
2018-12-12T09:34:02.837Z,102880.94
2018-12-12T09:36:31.617Z,102879.03
2018-12-12T09:39:00.017Z,102873.48
2018-12-12T09:41:28.434Z,102878.42
2018-12-12T09:43:56.997Z,102883.66
2018-12-12T09:46:25.427Z,102885.17
2018-12-12T09:48:54.155Z,102887.00
2018-12-12T09:51:22.525Z,102887.15
2018-12-12T09:53:50.976Z,102891.70
2018-12-12T09:56:19.358Z,102893.68
2018-12-12T09:58:47.759Z,102887.52
2018-12-12T10:01:16.232Z,102891.84
2018-12-12T10:03:44.741Z,102900.66
2018-12-12T10:06:13.160Z,102904.30
2018-12-12T10:08:41.730Z,102903.02
2018-12-12T10:11:10.107Z,102905.21
2018-12-12T10:13:38.672Z,102902.78
2018-12-12T10:16:07.145Z,102905.13
2018-12-12T10:18:35.549Z,102910.37
2018-12-12T10:21:03.974Z,102905.50
2018-12-12T10:23:32.611Z,102909.52
2018-12-12T10:26:01.094Z,102905.79
2018-12-12T10:28:29.486Z,102903.36
2018-12-12T10:30:58.019Z,102899.62
2018-12-12T10:33:26.428Z,102909.50
2018-12-12T10:35:55.273Z,102907.20
2018-12-12T10:38:24.139Z,102911.15
2018-12-12T10:40:52.657Z,102911.97
2018-12-12T10:43:21.041Z,102787.70
2018-12-12T10:45:49.488Z,102904.51
2018-12-12T10:48:17.888Z,102876.94
2018-12-12T10:50:46.553Z,102901.69
2018-12-12T10:53:15.039Z,102907.01
2018-12-12T10:55:43.472Z,102904.03
2018-12-12T10:58:12.012Z,102902.89
2018-12-12T11:00:42.433Z,102901.51
2018-12-12T11:03:16.602Z,102904.53
2018-12-12T11:05:45.176Z,102903.00
2018-12-12T11:08:13.767Z,102908.09
2018-12-12T11:10:42.561Z,102909.53
2018-12-12T11:13:10.975Z,102907.47
2018-12-12T11:15:39.357Z,102909.67
2018-12-12T11:18:08.301Z,102906.08
2018-12-12T11:20:37.013Z,102908.05
2018-12-12T11:23:05.630Z,102910.93
2018-12-12T11:25:34.306Z,102907.19
2018-12-12T11:28:03.255Z,102910.59
2018-12-12T11:30:31.665Z,102915.16
2018-12-12T11:33:00.127Z,102920.23
2018-12-12T11:35:28.698Z,102917.41
2018-12-12T11:37:57.198Z,102919.38
2018-12-12T11:40:25.772Z,102923.02
2018-12-12T11:42:54.200Z,102922.11
2018-12-12T11:45:22.612Z,102931.55
2018-12-12T11:47:51.869Z,102934.91
2018-12-12T11:50:20.327Z,102933.76
2018-12-12T11:52:49.249Z,102932.75
2018-12-12T11:55:17.820Z,102934.72
2018-12-12T11:57:46.308Z,102933.95
2018-12-12T12:00:14.711Z,102930.45
2018-12-12T12:02:43.250Z,102936.11
2018-12-12T12:05:11.672Z,102938.55
2018-12-12T12:07:40.049Z,102935.82
2018-12-12T12:10:10.419Z,102938.79
2018-12-12T12:12:38.844Z,102944.34
2018-12-12T12:15:07.997Z,102948.09
2018-12-12T12:17:36.385Z,102948.09
2018-12-12T12:20:05.441Z,102947.56
2018-12-12T12:22:33.926Z,102949.47
2018-12-12T12:25:02.432Z,102951.00
2018-12-12T12:27:30.864Z,102938.58
2018-12-12T12:29:59.256Z,102953.16
2018-12-12T12:32:27.632Z,102944.95
2018-12-12T12:34:56.086Z,102941.84
2018-12-12T12:37:24.567Z,102944.19
2018-12-12T12:39:53.524Z,102945.72
2018-12-12T12:42:22.259Z,102953.48
2018-12-12T12:44:51.076Z,102948.95
2018-12-12T12:47:19.544Z,102952.79
2018-12-12T12:49:47.954Z,102958.20
2018-12-12T12:52:16.337Z,102957.91
2018-12-12T12:54:44.719Z,102961.21
2018-12-12T12:57:13.149Z,102963.07
2018-12-12T12:59:41.527Z,102965.69
2018-12-12T13:02:09.956Z,102962.36
2018-12-12T13:04:38.512Z,102968.86
2018-12-12T13:07:06.906Z,102970.78
2018-12-12T13:09:35.359Z,102972.70
2018-12-12T13:12:03.895Z,102979.72
2018-12-12T13:14:32.441Z,102987.78
2018-12-12T13:17:00.934Z,102988.85
2018-12-12T13:19:30.085Z,102984.90
2018-12-12T13:21:58.528Z,102993.11
2018-12-12T13:24:27.169Z,102985.28
2018-12-12T13:26:55.570Z,102950.84
2018-12-12T13:29:24.446Z,102989.08
2018-12-12T13:31:52.825Z,102987.26
2018-12-12T13:34:21.256Z,102990.06
2018-12-12T13:36:49.667Z,102988.63
2018-12-12T13:39:18.088Z,102991.89
2018-12-12T13:41:46.651Z,102993.88
2018-12-12T13:44:15.158Z,102994.78
2018-12-12T13:46:44.102Z,102994.41
2018-12-12T13:49:12.862Z,102993.27
2018-12-12T13:51:41.293Z,102998.20
2018-12-12T13:54:09.682Z,102993.03
2018-12-12T13:56:38.715Z,102996.91
2018-12-12T13:59:07.234Z,103001.17
2018-12-12T14:01:35.627Z,102999.19
2018-12-12T14:04:04.301Z,103004.59
2018-12-12T14:06:32.701Z,103006.79
2018-12-12T14:09:01.142Z,103007.09
2018-12-12T14:11:29.803Z,103008.92
2018-12-12T14:13:58.275Z,103007.62
2018-12-12T14:16:26.681Z,103003.75
2018-12-12T14:18:55.369Z,103013.56
2018-12-12T14:21:23.770Z,103016.30
2018-12-12T14:23:52.152Z,103016.67
2018-12-12T14:26:20.598Z,103028.45
2018-12-12T14:28:48.974Z,103031.95
2018-12-12T14:31:17.367Z,103030.52
2018-12-12T14:33:45.772Z,103025.50
2018-12-12T14:36:14.165Z,103021.39
2018-12-12T14:38:42.563Z,103025.80
2018-12-12T14:41:10.989Z,103027.86
2018-12-12T14:43:39.553Z,103031.34
2018-12-12T14:46:08.209Z,103030.59
2018-12-12T14:48:36.678Z,103031.50
2018-12-12T14:51:05.069Z,103038.65
2018-12-12T14:53:33.486Z,103037.89
2018-12-12T14:56:01.901Z,103036.22
2018-12-12T14:58:30.523Z,103035.31
2018-12-12T15:00:58.941Z,103039.72
2018-12-12T15:03:27.412Z,103043.98
2018-12-12T15:05:55.808Z,103043.59
2018-12-12T15:08:24.191Z,103050.06
2018-12-12T15:10:52.601Z,103058.19
2018-12-12T15:13:20.977Z,103055.23
2018-12-12T15:15:49.454Z,103053.17
2018-12-12T15:18:18.407Z,103047.25
2018-12-12T15:20:46.963Z,103052.42
2018-12-12T15:23:15.361Z,103043.90
2018-12-12T15:25:43.826Z,103049.07
2018-12-12T15:28:12.215Z,103050.36
2018-12-12T15:30:41.134Z,103047.55
2018-12-12T15:33:09.984Z,103046.79
2018-12-12T15:35:38.379Z,103038.73
2018-12-12T15:38:06.897Z,103042.61
2018-12-12T15:40:35.321Z,103041.31
2018-12-12T15:43:03.717Z,103045.73
2018-12-12T15:45:32.366Z,103051.96
2018-12-12T15:48:00.924Z,103047.86
2018-12-12T15:50:29.293Z,103049.30
2018-12-12T15:52:57.690Z,103056.14
2018-12-12T15:55:26.174Z,103047.78
2018-12-12T15:57:54.570Z,103055.92
2018-12-12T16:00:25.080Z,103051.50
2018-12-12T16:02:53.570Z,103061.31
2018-12-12T16:05:21.996Z,103070.36
2018-12-12T16:07:50.397Z,103074.02
2018-12-12T16:10:18.863Z,103082.84
2018-12-12T16:12:47.251Z,103079.88
2018-12-12T16:15:16.264Z,103075.77
2018-12-12T16:17:44.756Z,103073.19
2018-12-12T16:20:13.132Z,103072.80
2018-12-12T16:22:41.559Z,103075.92
2018-12-12T16:25:10.136Z,103069.76
2018-12-12T16:27:38.529Z,103068.62
2018-12-12T16:30:07.663Z,103067.33
2018-12-12T16:32:36.219Z,103059.80
2018-12-12T16:35:04.961Z,103066.27
2018-12-12T16:37:34.033Z,103062.61
2018-12-12T16:40:02.994Z,103060.63
2018-12-12T16:42:31.385Z,103070.44
2018-12-12T16:44:59.807Z,103070.44
2018-12-12T16:47:28.204Z,103066.34
2018-12-12T16:49:56.748Z,103062.45
2018-12-12T16:52:25.427Z,103060.63
2018-12-12T16:54:53.923Z,103062.69
2018-12-12T16:57:22.304Z,103061.24
2018-12-12T16:59:50.703Z,103056.83
2018-12-12T17:02:19.185Z,103062.00
2018-12-12T17:04:47.628Z,103053.03
2018-12-12T17:07:16.038Z,103051.96
2018-12-12T17:09:44.636Z,103056.59
2018-12-12T17:12:12.996Z,103059.03
2018-12-12T17:14:41.444Z,103061.23
2018-12-12T17:17:10.051Z,103064.73
2018-12-12T17:19:38.444Z,103060.70
2018-12-12T17:22:06.853Z,103059.79
2018-12-12T17:24:35.332Z,103063.82
2018-12-12T17:27:03.728Z,103067.17
2018-12-12T17:29:32.126Z,103066.41
2018-12-12T17:32:00.565Z,103069.75
2018-12-12T17:34:28.964Z,103071.80
2018-12-12T17:36:57.386Z,103071.80
2018-12-12T17:39:25.836Z,103072.56
2018-12-12T17:41:54.236Z,103075.84
2018-12-12T17:44:22.646Z,103082.30
2018-12-12T17:46:51.077Z,103081.54
2018-12-12T17:49:19.526Z,103083.59
2018-12-12T17:51:48.385Z,103088.61
2018-12-12T17:54:16.811Z,103096.36
2018-12-12T17:56:45.204Z,103023.17
2018-12-12T17:59:13.606Z,103096.59
2018-12-12T18:01:42.117Z,103105.19
2018-12-12T18:04:10.518Z,103107.02
2018-12-12T18:06:38.901Z,103105.88
2018-12-12T18:09:09.071Z,103102.91
2018-12-12T18:11:37.680Z,103113.25
2018-12-12T18:14:06.193Z,103110.12
2018-12-12T18:16:34.598Z,103113.86
2018-12-12T18:19:03.461Z,103103.14
2018-12-12T18:21:31.875Z,103102.76
2018-12-12T18:24:00.309Z,103110.66
2018-12-12T18:26:28.690Z,103110.89
2018-12-12T18:28:57.106Z,103110.36
2018-12-12T18:31:25.810Z,103112.41
2018-12-12T18:33:54.414Z,103120.31
2018-12-12T18:36:22.809Z,103084.64
2018-12-12T18:38:51.328Z,103118.27
2018-12-12T18:41:19.721Z,103109.59
2018-12-12T18:43:48.116Z,103119.18
2018-12-12T18:46:16.715Z,103121.77
2018-12-12T18:48:45.137Z,103116.59
2018-12-12T18:51:13.554Z,103118.95
2018-12-12T18:53:43.220Z,103117.66
2018-12-12T18:56:11.726Z,103113.78
2018-12-12T18:58:40.723Z,103117.51
2018-12-12T19:01:09.257Z,103120.09
2018-12-12T19:03:39.736Z,103117.89
2018-12-12T19:06:08.135Z,103118.42
2018-12-12T19:08:36.810Z,103117.89
2018-12-12T19:11:05.273Z,103127.09
2018-12-12T19:13:33.664Z,103121.01
2018-12-12T19:16:02.051Z,103124.88
2018-12-12T19:18:30.460Z,103126.94
2018-12-12T19:21:00.261Z,103125.27
2018-12-12T19:23:29.319Z,103129.67
2018-12-12T19:25:57.777Z,103137.05
2018-12-12T19:28:26.266Z,103133.02
2018-12-12T19:30:54.754Z,103132.87
2018-12-12T19:33:23.193Z,103125.87
2018-12-12T19:35:51.654Z,103130.50
2018-12-12T19:38:20.200Z,103125.11
2018-12-12T19:40:48.719Z,103120.85
2018-12-12T19:43:17.134Z,103119.56
2018-12-12T19:45:45.736Z,103124.35
2018-12-12T19:48:14.545Z,103118.11
2018-12-12T19:50:42.981Z,103121.08
2018-12-12T19:53:11.531Z,103017.82
2018-12-12T19:58:43.865Z,103132.55
2018-12-12T20:01:12.307Z,103125.56
2018-12-12T20:03:40.723Z,103126.70
2018-12-12T20:06:09.232Z,103128.06
2018-12-12T20:08:38.036Z,103135.28
2018-12-12T20:14:09.313Z,103157.63
2018-12-12T20:16:38.305Z,103130.55
2018-12-12T20:19:06.815Z,103124.31
2018-12-12T20:21:35.380Z,103122.78
2018-12-12T20:24:03.912Z,103120.48
2018-12-12T20:26:33.161Z,103125.56
2018-12-12T20:29:01.615Z,103135.75
2018-12-12T20:31:30.088Z,103142.20
2018-12-12T20:33:58.680Z,103140.53
2018-12-12T20:36:27.367Z,103144.19
2018-12-12T20:38:55.857Z,103145.80
2018-12-12T20:41:25.381Z,103147.84
2018-12-12T20:43:54.098Z,102968.59
2018-12-12T20:46:22.785Z,103144.66
2018-12-12T20:48:51.521Z,103146.17
2018-12-12T20:51:20.220Z,103151.34
2018-12-12T20:53:48.664Z,103141.37
2018-12-12T20:56:17.164Z,103154.30
2018-12-12T20:58:45.676Z,103150.27
2018-12-12T21:01:14.134Z,103149.20
2018-12-12T21:03:42.510Z,103143.27
2018-12-12T21:06:11.114Z,103140.00
2018-12-12T21:08:39.701Z,103146.99
2018-12-12T21:11:08.142Z,103152.16
2018-12-12T21:13:36.720Z,103159.16
2018-12-12T21:16:05.309Z,103159.69
2018-12-12T21:18:33.707Z,103156.41
2018-12-12T21:21:02.169Z,103153.98
2018-12-12T21:23:30.604Z,103160.07
2018-12-12T21:25:59.420Z,103161.36
2018-12-12T21:28:27.905Z,103161.36
2018-12-12T21:30:56.322Z,103168.73
2018-12-12T21:33:24.775Z,102975.80
2018-12-12T21:35:53.204Z,103163.56
2018-12-12T21:38:21.772Z,103162.27
2018-12-12T21:40:50.216Z,102930.95
2018-12-12T21:43:18.686Z,103172.08
2018-12-12T21:45:47.261Z,103169.49
2018-12-12T21:48:15.626Z,103169.49
2018-12-12T21:50:44.077Z,103177.24
2018-12-12T21:53:12.537Z,103179.83
2018-12-12T21:55:41.020Z,103173.37
2018-12-12T21:58:09.456Z,103173.37
2018-12-12T22:00:37.861Z,103128.91
2018-12-12T22:03:06.294Z,103170.03
2018-12-12T22:05:34.700Z,103168.73
2018-12-12T22:08:03.072Z,103172.08
2018-12-12T22:10:31.466Z,103169.49
2018-12-12T22:12:59.899Z,103167.66
2018-12-12T22:15:28.350Z,103176.33
2018-12-12T22:17:56.861Z,103171.00
2018-12-12T22:20:25.409Z,103175.09
2018-12-12T22:22:53.777Z,103179.20
2018-12-12T22:25:22.310Z,103176.83
2018-12-12T22:27:50.777Z,103174.25
2018-12-12T22:30:25.519Z,103175.98
2018-12-12T22:32:54.005Z,103178.02
2018-12-12T22:35:22.548Z,103179.16
2018-12-12T22:40:26.381Z,103172.86
2018-12-12T22:42:54.773Z,103179.53
2018-12-12T22:45:23.149Z,103179.91
2018-12-12T22:47:52.394Z,103182.12
2018-12-12T22:50:20.848Z,103182.87
2018-12-12T22:52:49.301Z,103182.87
2018-12-12T22:55:17.704Z,103184.92
2018-12-12T22:57:46.137Z,103184.01
2018-12-12T23:02:25.490Z,103197.84
2018-12-12T23:04:53.904Z,103193.27
2018-12-12T23:07:22.518Z,103185.36
2018-12-12T23:09:50.969Z,103184.06
2018-12-12T23:12:19.348Z,103191.59
2018-12-12T23:14:47.729Z,103184.60
2018-12-12T23:17:22.473Z,103181.80
2018-12-12T23:19:51.064Z,103182.17
2018-12-12T23:22:19.844Z,103183.84
2018-12-12T23:24:48.353Z,103184.98
2018-12-12T23:27:16.736Z,103184.98
2018-12-12T23:29:45.125Z,103188.10
2018-12-12T23:32:14.355Z,103195.47
2018-12-12T23:34:42.765Z,103189.61
2018-12-12T23:37:11.175Z,103194.02
2018-12-12T23:39:40.021Z,103189.77
2018-12-12T23:42:08.562Z,103188.31
2018-12-12T23:44:37.111Z,103188.70
2018-12-12T23:47:05.532Z,103196.98
2018-12-12T23:49:34.023Z,103191.44
2018-12-12T23:52:02.392Z,103193.64
2018-12-12T23:54:31.103Z,103194.40
2018-12-12T23:56:59.532Z,103186.65
2018-12-12T23:59:27.994Z,103184.81
